createdAt,value
2023-04-08T00:02:10.525Z,4.60
2023-04-08T00:04:37.260Z,4.60
2023-04-08T00:07:04.003Z,4.60
2023-04-08T00:09:30.569Z,4.50
2023-04-08T00:11:57.156Z,4.50
2023-04-08T00:14:23.727Z,4.40
2023-04-08T00:16:50.303Z,4.40
2023-04-08T00:19:16.887Z,4.50
2023-04-08T00:21:43.441Z,4.40
2023-04-08T00:24:09.999Z,4.30
2023-04-08T00:26:36.568Z,4.30
2023-04-08T00:29:03.225Z,4.30
2023-04-08T00:31:29.867Z,4.30
2023-04-08T00:33:56.610Z,4.20
2023-04-08T00:36:23.148Z,4.30
2023-04-08T00:38:50.036Z,4.20
2023-04-08T00:41:16.877Z,4.20
2023-04-08T00:43:43.434Z,4.20
2023-04-08T00:46:10.394Z,4.20
2023-04-08T00:48:37.113Z,4.20
2023-04-08T00:51:04.065Z,4.20
2023-04-08T00:53:31.303Z,4.10
2023-04-08T00:55:57.901Z,4.10
2023-04-08T00:58:24.477Z,4.10
2023-04-08T01:01:07.118Z,4.10
2023-04-08T01:04:02.252Z,4.00
2023-04-08T01:06:32.275Z,4.00
2023-04-08T01:09:00.833Z,4.00
2023-04-08T01:11:31.055Z,4.00
2023-04-08T01:13:59.331Z,3.90
2023-04-08T01:16:26.718Z,3.90
2023-04-08T01:18:54.699Z,3.90
2023-04-08T01:21:23.449Z,3.80
2023-04-08T01:24:13.786Z,3.80
2023-04-08T01:26:40.974Z,3.80
2023-04-08T01:29:09.215Z,3.80
2023-04-08T01:31:38.602Z,3.80
2023-04-08T01:34:06.236Z,3.80
2023-04-08T01:36:33.685Z,3.80
2023-04-08T01:39:03.046Z,3.90
2023-04-08T01:41:30.712Z,3.90
2023-04-08T01:43:58.544Z,3.90
2023-04-08T01:46:26.014Z,4.00
2023-04-08T01:48:54.153Z,4.00
2023-04-08T01:51:21.914Z,4.10
2023-04-08T01:53:48.490Z,4.10
2023-04-08T01:56:16.701Z,4.10
2023-04-08T01:58:48.776Z,4.10
2023-04-08T02:01:19.056Z,4.00
2023-04-08T02:03:47.531Z,3.90
2023-04-08T02:06:14.211Z,3.80
2023-04-08T02:08:40.797Z,3.70
2023-04-08T02:11:07.364Z,3.70
2023-04-08T02:13:34.146Z,3.60
2023-04-08T02:16:09.463Z,3.60
2023-04-08T02:18:38.818Z,3.50
2023-04-08T02:21:15.318Z,3.60
2023-04-08T02:23:45.502Z,3.60
2023-04-08T02:26:16.373Z,3.60
2023-04-08T02:28:43.313Z,3.50
2023-04-08T02:31:12.469Z,3.50
2023-04-08T02:33:39.933Z,3.60
2023-04-08T02:36:07.793Z,3.60
2023-04-08T02:38:34.467Z,3.60
2023-04-08T02:41:01.089Z,3.60
2023-04-08T02:43:27.637Z,3.60
2023-04-08T02:45:54.269Z,3.60
2023-04-08T02:48:20.860Z,3.70
2023-04-08T02:50:47.400Z,3.70
2023-04-08T02:53:13.927Z,3.70
2023-04-08T02:55:40.494Z,3.70
2023-04-08T02:58:23.888Z,3.70
2023-04-08T03:00:50.478Z,3.70
2023-04-08T03:03:17.128Z,3.80
2023-04-08T03:05:43.807Z,3.90
2023-04-08T03:08:10.406Z,3.90
2023-04-08T03:10:36.969Z,3.80
2023-04-08T03:13:03.546Z,3.80
2023-04-08T03:15:30.131Z,3.80
2023-04-08T03:17:56.720Z,3.90
2023-04-08T03:20:23.359Z,3.90
2023-04-08T03:22:49.944Z,3.90
2023-04-08T03:25:16.592Z,3.90
2023-04-08T03:27:43.200Z,3.90
2023-04-08T03:30:10.275Z,3.80
2023-04-08T03:32:36.902Z,3.80
2023-04-08T03:35:04.690Z,3.80
2023-04-08T03:37:31.352Z,3.70
2023-04-08T03:39:58.040Z,3.70
2023-04-08T03:42:24.688Z,3.70
2023-04-08T03:44:51.334Z,3.70
2023-04-08T03:47:17.967Z,3.70
2023-04-08T03:49:44.500Z,3.70
2023-04-08T03:52:11.092Z,3.70
2023-04-08T03:54:37.701Z,3.70
2023-04-08T03:57:04.308Z,3.80
2023-04-08T03:59:31.005Z,3.90
2023-04-08T04:01:57.671Z,3.90
2023-04-08T04:04:24.394Z,3.90
2023-04-08T04:06:51.062Z,3.90
2023-04-08T04:09:17.737Z,3.90
2023-04-08T04:11:44.372Z,3.90
2023-04-08T04:14:10.994Z,3.90
2023-04-08T04:16:37.594Z,3.90
2023-04-08T04:19:04.157Z,3.90
2023-04-08T04:21:30.794Z,3.80
2023-04-08T04:23:57.334Z,3.90
2023-04-08T04:26:23.948Z,3.90
2023-04-08T04:28:50.692Z,3.90
2023-04-08T04:31:22.053Z,3.90
2023-04-08T04:33:49.143Z,4.00
2023-04-08T04:36:16.025Z,4.00
2023-04-08T04:38:43.272Z,4.00
2023-04-08T04:41:10.021Z,4.10
2023-04-08T04:43:36.702Z,4.10
2023-04-08T04:46:03.416Z,4.20
2023-04-08T04:48:30.035Z,4.20
2023-04-08T04:50:57.770Z,4.30
2023-04-08T04:53:24.431Z,4.30
2023-04-08T04:55:51.464Z,4.40
2023-04-08T04:58:18.303Z,4.40
2023-04-08T05:00:45.247Z,4.40
2023-04-08T05:03:12.013Z,4.50
2023-04-08T05:05:38.812Z,4.50
2023-04-08T05:08:05.586Z,4.50
2023-04-08T05:10:32.135Z,4.50
2023-04-08T05:12:58.702Z,4.60
2023-04-08T05:15:25.274Z,4.60
2023-04-08T05:17:51.913Z,4.70
2023-04-08T05:20:18.790Z,4.70
2023-04-08T05:22:45.365Z,4.70
2023-04-08T05:25:12.027Z,4.70
2023-04-08T05:27:38.602Z,4.80
2023-04-08T05:30:05.664Z,4.80
2023-04-08T05:32:32.264Z,4.90
2023-04-08T05:35:01.792Z,4.90
2023-04-08T05:37:28.364Z,4.90
2023-04-08T05:39:54.946Z,4.90
2023-04-08T05:42:21.514Z,5.00
2023-04-08T05:44:48.051Z,5.00
2023-04-08T05:47:14.566Z,5.00
2023-04-08T05:49:41.163Z,5.10
2023-04-08T05:52:07.842Z,5.10
2023-04-08T05:54:34.397Z,5.20
2023-04-08T05:57:01.007Z,5.20
2023-04-08T05:59:27.582Z,5.20
2023-04-08T06:01:54.155Z,5.30
2023-04-08T06:04:21.021Z,5.30
2023-04-08T06:06:47.648Z,5.40
2023-04-08T06:09:14.229Z,5.50
2023-04-08T06:11:40.864Z,5.50
2023-04-08T06:14:07.461Z,5.60
2023-04-08T06:16:34.237Z,5.60
2023-04-08T06:19:00.872Z,5.60
2023-04-08T06:21:27.446Z,5.60
2023-04-08T06:23:54.024Z,5.60
2023-04-08T06:26:20.857Z,5.60
2023-04-08T06:28:47.411Z,5.60
2023-04-08T06:31:14.025Z,5.70
2023-04-08T06:33:40.611Z,5.70
2023-04-08T06:36:08.221Z,5.80
2023-04-08T06:38:35.059Z,5.80
2023-04-08T06:41:06.174Z,5.80
2023-04-08T06:43:33.947Z,5.90
2023-04-08T06:46:00.732Z,5.90
2023-04-08T06:48:27.619Z,5.90
2023-04-08T06:50:58.836Z,5.80
2023-04-08T06:53:26.217Z,5.90
2023-04-08T06:55:52.937Z,5.90
2023-04-08T06:58:19.487Z,5.90
2023-04-08T07:00:46.080Z,5.90
2023-04-08T07:03:12.808Z,6.00
2023-04-08T07:05:39.614Z,6.00
2023-04-08T07:08:06.480Z,6.00
2023-04-08T07:10:34.270Z,6.00
2023-04-08T07:13:00.933Z,6.00
2023-04-08T07:15:27.496Z,6.10
2023-04-08T07:17:54.135Z,6.10
2023-04-08T07:20:20.688Z,6.10
2023-04-08T07:22:47.231Z,6.20
2023-04-08T07:25:13.855Z,6.20
2023-04-08T07:27:40.484Z,6.20
2023-04-08T07:30:07.894Z,6.20
2023-04-08T07:32:34.783Z,6.20
2023-04-08T07:35:01.660Z,6.20
2023-04-08T07:37:28.398Z,6.20
2023-04-08T07:39:54.960Z,6.30
2023-04-08T07:42:21.564Z,6.30
2023-04-08T07:44:48.443Z,6.40
2023-04-08T07:47:15.033Z,6.40
2023-04-08T07:49:41.595Z,6.30
2023-04-08T07:52:08.157Z,6.30
2023-04-08T07:54:34.718Z,6.40
2023-04-08T07:57:01.239Z,6.50
2023-04-08T07:59:28.427Z,6.50
2023-04-08T08:01:55.265Z,6.60
2023-04-08T08:04:22.046Z,6.60
2023-04-08T08:06:48.728Z,6.70
2023-04-08T08:09:15.319Z,6.70
2023-04-08T08:11:41.862Z,6.80
2023-04-08T08:14:08.454Z,6.80
2023-04-08T08:16:35.206Z,6.80
2023-04-08T08:19:01.798Z,6.90
2023-04-08T08:21:28.401Z,6.90
2023-04-08T08:23:55.040Z,6.90
2023-04-08T08:26:21.584Z,6.90
2023-04-08T08:28:48.209Z,7.00
2023-04-08T08:31:14.828Z,7.00
2023-04-08T08:33:41.425Z,7.00
2023-04-08T08:36:08.042Z,7.10
2023-04-08T08:38:34.689Z,7.10
2023-04-08T08:41:01.378Z,6.90
2023-04-08T08:43:29.263Z,6.90
2023-04-08T08:45:55.866Z,6.80
2023-04-08T08:48:22.536Z,6.80
2023-04-08T08:50:49.126Z,6.80
2023-04-08T08:53:15.759Z,6.90
2023-04-08T08:58:11.845Z,6.90
2023-04-08T09:00:40.594Z,6.90
2023-04-08T09:03:20.339Z,7.00
2023-04-08T09:05:51.359Z,6.90
2023-04-08T09:08:31.741Z,6.90
2023-04-08T09:11:16.533Z,6.90
2023-04-08T09:13:43.795Z,6.80
2023-04-08T09:16:12.378Z,6.70
2023-04-08T09:18:39.890Z,6.70
2023-04-08T09:21:07.279Z,6.70
2023-04-08T09:23:45.162Z,6.80
2023-04-08T09:26:19.524Z,6.70
2023-04-08T09:29:18.338Z,6.80
2023-04-08T09:31:59.742Z,6.80
2023-04-08T09:34:28.454Z,6.80
2023-04-08T09:36:55.476Z,6.80
2023-04-08T09:39:22.688Z,6.70
2023-04-08T09:41:51.322Z,6.80
2023-04-08T09:44:20.121Z,6.90
2023-04-08T09:46:49.661Z,6.90
2023-04-08T09:49:26.567Z,6.90
2023-04-08T09:52:08.297Z,6.80
2023-04-08T09:54:42.184Z,6.80
2023-04-08T09:57:21.669Z,6.90
2023-04-08T09:59:55.795Z,6.90
2023-04-08T10:02:30.635Z,6.90
2023-04-08T10:05:00.862Z,7.00
2023-04-08T10:07:27.610Z,7.10
2023-04-08T10:09:54.394Z,7.30
2023-04-08T10:12:21.242Z,7.50
2023-04-08T10:15:21.718Z,7.50
2023-04-08T10:17:48.400Z,7.50
2023-04-08T10:20:33.946Z,7.50
2023-04-08T10:23:17.568Z,7.60
2023-04-08T10:25:48.469Z,7.50
2023-04-08T10:28:15.070Z,7.40
2023-04-08T10:30:55.165Z,7.60
2023-04-08T10:33:30.294Z,7.60
2023-04-08T10:36:08.372Z,7.60
2023-04-08T10:38:35.235Z,7.60
2023-04-08T10:41:01.853Z,7.60
2023-04-08T10:43:36.840Z,7.60
2023-04-08T10:46:04.084Z,7.50
2023-04-08T10:48:30.801Z,7.50
2023-04-08T10:50:59.530Z,7.50
2023-04-08T10:53:29.675Z,7.60
2023-04-08T10:56:11.869Z,7.80
2023-04-08T10:58:51.249Z,7.90
2023-04-08T11:01:18.557Z,7.90
2023-04-08T11:03:45.382Z,7.90
2023-04-08T11:06:12.121Z,7.90
2023-04-08T11:08:39.131Z,8.00
2023-04-08T11:11:06.551Z,8.10
2023-04-08T11:13:33.344Z,8.10
2023-04-08T11:16:00.865Z,8.10
2023-04-08T11:18:27.695Z,8.00
2023-04-08T11:20:54.444Z,8.00
2023-04-08T11:23:21.034Z,8.00
2023-04-08T11:25:47.995Z,8.00
2023-04-08T11:28:15.074Z,7.90
2023-04-08T11:30:42.206Z,7.80
2023-04-08T11:33:09.360Z,7.90
2023-04-08T11:35:40.616Z,8.00
2023-04-08T11:38:08.952Z,7.90
2023-04-08T11:40:35.592Z,7.90
2023-04-08T11:43:12.829Z,7.80
2023-04-08T11:45:40.278Z,7.70
2023-04-08T11:48:15.158Z,7.70
2023-04-08T11:50:42.648Z,7.80
2023-04-08T11:53:24.747Z,7.50
2023-04-08T11:55:51.870Z,7.60
2023-04-08T11:58:18.444Z,7.60
2023-04-08T12:00:45.111Z,7.50
2023-04-08T12:03:11.978Z,7.50
2023-04-08T12:05:38.794Z,7.30
2023-04-08T12:08:05.480Z,7.30
2023-04-08T12:10:32.624Z,7.30
2023-04-08T12:12:59.163Z,7.30
2023-04-08T12:15:25.747Z,7.30
2023-04-08T12:17:52.624Z,7.30
2023-04-08T12:20:19.273Z,7.40
2023-04-08T12:22:45.842Z,7.40
2023-04-08T12:25:12.415Z,7.30
2023-04-08T12:27:38.985Z,7.20
2023-04-08T12:30:06.045Z,7.10
2023-04-08T12:32:32.724Z,7.10
2023-04-08T12:34:59.320Z,7.20
2023-04-08T12:37:25.879Z,7.40
2023-04-08T12:39:52.453Z,7.40
2023-04-08T12:42:19.073Z,7.30
2023-04-08T12:44:45.642Z,7.10
2023-04-08T12:47:12.361Z,7.00
2023-04-08T12:52:08.693Z,7.00
2023-04-08T12:54:35.254Z,6.90
2023-04-08T12:57:01.877Z,6.90
2023-04-08T12:59:28.542Z,7.00
2023-04-08T13:01:55.156Z,7.00
2023-04-08T13:04:21.742Z,6.90
2023-04-08T13:06:48.347Z,6.80
2023-04-08T13:09:14.906Z,6.90
2023-04-08T13:11:41.477Z,6.90
2023-04-08T13:14:08.088Z,6.90
2023-04-08T13:16:34.683Z,7.00
2023-04-08T13:19:01.303Z,6.90
2023-04-08T13:21:27.886Z,6.90
2023-04-08T13:23:54.457Z,6.80
2023-04-08T13:26:21.005Z,6.80
2023-04-08T13:28:56.711Z,6.80
2023-04-08T13:31:24.270Z,6.90
2023-04-08T13:33:51.387Z,6.80
2023-04-08T13:36:18.020Z,6.80
2023-04-08T13:38:44.922Z,6.80
2023-04-08T13:41:11.651Z,6.80
2023-04-08T13:43:38.603Z,6.70
2023-04-08T13:46:05.286Z,6.70
2023-04-08T13:48:31.898Z,6.70
2023-04-08T13:50:58.436Z,6.80
2023-04-08T13:53:24.989Z,6.70
2023-04-08T13:55:51.629Z,6.70
2023-04-08T13:58:23.893Z,6.80
2023-04-08T14:00:51.668Z,6.80
2023-04-08T14:03:18.864Z,6.70
2023-04-08T14:05:45.492Z,6.70
2023-04-08T14:08:12.094Z,6.70
2023-04-08T14:10:38.889Z,6.70
2023-04-08T14:13:05.430Z,6.70
2023-04-08T14:15:31.957Z,6.70
2023-04-08T14:17:58.588Z,6.80
2023-04-08T14:20:25.221Z,6.80
2023-04-08T14:22:51.771Z,6.70
2023-04-08T14:25:18.366Z,6.80
2023-04-08T14:27:57.420Z,6.90
2023-04-08T14:30:25.508Z,6.90
2023-04-08T14:32:52.128Z,7.00
2023-04-08T14:35:18.809Z,7.00
2023-04-08T14:37:45.401Z,6.90
2023-04-08T14:40:12.273Z,6.90
2023-04-08T14:42:38.786Z,6.90
2023-04-08T14:45:05.812Z,6.80
2023-04-08T14:47:32.390Z,6.80
2023-04-08T14:49:58.941Z,6.80
2023-04-08T14:52:25.521Z,6.80
2023-04-08T14:54:52.076Z,6.70
2023-04-08T14:57:18.626Z,6.70
2023-04-08T14:59:45.496Z,6.80
2023-04-08T15:02:12.180Z,6.70
2023-04-08T15:04:38.870Z,6.60
2023-04-08T15:07:05.554Z,6.70
2023-04-08T15:09:32.276Z,6.70
2023-04-08T15:11:58.820Z,6.80
2023-04-08T15:14:25.425Z,6.70
2023-04-08T15:16:51.980Z,6.70
2023-04-08T15:19:18.519Z,6.70
2023-04-08T15:21:45.073Z,6.70
2023-04-08T15:24:11.614Z,6.80
2023-04-08T15:26:38.452Z,6.80
2023-04-08T15:29:05.026Z,6.70
2023-04-08T15:31:31.641Z,6.80
2023-04-08T15:33:58.360Z,6.70
2023-04-08T15:36:24.988Z,6.80
2023-04-08T15:38:51.845Z,6.80
2023-04-08T15:41:19.616Z,6.80
2023-04-08T15:43:46.772Z,6.80
2023-04-08T15:46:20.362Z,6.80
2023-04-08T15:48:50.491Z,6.80
2023-04-08T15:51:17.257Z,6.60
2023-04-08T15:53:43.898Z,6.60
2023-04-08T15:56:14.592Z,6.60
2023-04-08T15:58:41.465Z,6.70
2023-04-08T16:01:08.513Z,6.70
2023-04-08T16:03:35.303Z,6.80
2023-04-08T16:06:02.070Z,6.80
2023-04-08T16:08:28.633Z,6.80
2023-04-08T16:11:04.802Z,6.80
2023-04-08T16:13:31.812Z,6.80
2023-04-08T16:16:01.797Z,6.90
2023-04-08T16:18:28.907Z,6.90
2023-04-08T16:20:56.181Z,6.80
2023-04-08T16:23:23.227Z,6.80
2023-04-08T16:25:49.843Z,6.80
2023-04-08T16:28:16.380Z,6.80
2023-04-08T16:30:42.930Z,6.90
2023-04-08T16:33:10.637Z,6.80
2023-04-08T16:35:37.256Z,6.90
2023-04-08T16:38:03.870Z,6.90
2023-04-08T16:40:30.476Z,6.80
2023-04-08T16:42:57.041Z,6.70
2023-04-08T16:45:23.649Z,6.70
2023-04-08T16:47:50.278Z,6.70
2023-04-08T16:50:16.871Z,6.70
2023-04-08T16:52:43.434Z,6.70
2023-04-08T16:55:10.185Z,6.70
2023-04-08T16:57:36.747Z,6.70
2023-04-08T17:00:03.523Z,6.80
2023-04-08T17:02:30.179Z,6.70
2023-04-08T17:04:56.787Z,6.70
2023-04-08T17:07:23.384Z,6.70
2023-04-08T17:09:51.369Z,6.70
2023-04-08T17:12:18.084Z,6.70
2023-04-08T17:14:44.795Z,6.70
2023-04-08T17:17:11.398Z,6.70
2023-04-08T17:19:37.978Z,6.80
2023-04-08T17:22:04.814Z,6.80
2023-04-08T17:24:31.610Z,6.80
2023-04-08T17:26:58.163Z,6.80
2023-04-08T17:29:24.863Z,6.70
2023-04-08T17:31:51.729Z,6.70
2023-04-08T17:34:18.360Z,6.70
2023-04-08T17:36:44.960Z,6.70
2023-04-08T17:39:11.568Z,6.70
2023-04-08T17:41:40.297Z,6.70
2023-04-08T17:44:07.748Z,6.70
2023-04-08T17:46:35.208Z,6.70
2023-04-08T17:49:01.775Z,6.70
2023-04-08T17:51:28.446Z,6.70
2023-04-08T17:53:55.015Z,6.70
2023-04-08T17:56:21.896Z,6.60
2023-04-08T17:58:48.504Z,6.70
2023-04-08T18:01:15.084Z,6.70
2023-04-08T18:03:41.799Z,6.70
2023-04-08T18:06:08.514Z,6.70
2023-04-08T18:08:35.215Z,6.70
2023-04-08T18:11:05.876Z,6.70
2023-04-08T18:13:32.523Z,6.70
2023-04-08T18:15:59.338Z,6.70
2023-04-08T18:18:25.977Z,6.60
2023-04-08T18:20:52.519Z,6.60
2023-04-08T18:23:19.086Z,6.60
2023-04-08T18:25:49.055Z,6.60
2023-04-08T18:28:15.643Z,6.60
2023-04-08T18:30:42.463Z,6.60
2023-04-08T18:33:09.133Z,6.60
2023-04-08T18:35:35.788Z,6.60
2023-04-08T18:38:02.462Z,6.60
2023-04-08T18:40:29.348Z,6.60
2023-04-08T18:42:55.960Z,6.60
2023-04-08T18:45:22.615Z,6.50
2023-04-08T18:47:49.262Z,6.60
2023-04-08T18:50:16.192Z,6.60
2023-04-08T18:52:42.909Z,6.60
2023-04-08T18:55:09.541Z,6.60
2023-04-08T18:57:36.185Z,6.60
2023-04-08T19:00:03.421Z,6.60
2023-04-08T19:02:30.047Z,6.60
2023-04-08T19:04:56.702Z,6.60
2023-04-08T19:07:23.400Z,6.50
2023-04-08T19:09:49.991Z,6.50
2023-04-08T19:12:16.544Z,6.60
2023-04-08T19:14:43.123Z,6.50
2023-04-08T19:17:09.680Z,6.50
2023-04-08T19:19:36.257Z,6.50
2023-04-08T19:22:02.919Z,6.50
2023-04-08T19:24:29.632Z,6.50
2023-04-08T19:26:56.340Z,6.50
2023-04-08T19:29:23.061Z,6.50
2023-04-08T19:31:50.058Z,6.40
2023-04-08T19:34:16.662Z,6.40
2023-04-08T19:36:43.241Z,6.50
2023-04-08T19:39:09.805Z,6.40
2023-04-08T19:41:36.324Z,6.40
2023-04-08T19:44:03.000Z,6.40
2023-04-08T19:46:29.610Z,6.40
2023-04-08T19:48:56.205Z,6.30
2023-04-08T19:51:22.800Z,6.30
2023-04-08T19:53:49.910Z,6.30
2023-04-08T19:56:16.772Z,6.20
2023-04-08T19:58:43.360Z,6.20
2023-04-08T20:01:09.940Z,6.20
2023-04-08T20:03:36.753Z,6.20
2023-04-08T20:06:03.461Z,6.20
2023-04-08T20:08:30.026Z,6.20
2023-04-08T20:10:56.668Z,6.20
2023-04-08T20:13:23.237Z,6.20
2023-04-08T20:15:49.850Z,6.10
2023-04-08T20:18:16.426Z,6.10
2023-04-08T20:20:42.997Z,6.10
2023-04-08T20:23:09.574Z,6.00
2023-04-08T20:25:36.134Z,5.90
2023-04-08T20:28:02.717Z,5.90
2023-04-08T20:30:29.252Z,5.80
2023-04-08T20:32:55.872Z,5.80
2023-04-08T20:35:22.595Z,5.80
2023-04-08T20:37:49.156Z,5.80
2023-04-08T20:40:18.057Z,5.70
2023-04-08T20:42:45.033Z,5.70
2023-04-08T20:45:11.751Z,5.60
2023-04-08T20:47:38.368Z,5.50
2023-04-08T20:50:05.975Z,5.40
2023-04-08T20:52:32.845Z,5.40
2023-04-08T20:54:59.509Z,5.30
2023-04-08T20:57:26.735Z,5.20
2023-04-08T20:59:53.296Z,5.20
2023-04-08T21:02:20.117Z,5.20
2023-04-08T21:04:47.205Z,5.10
2023-04-08T21:07:13.772Z,5.00
2023-04-08T21:09:40.330Z,5.00
2023-04-08T21:12:06.903Z,4.90
2023-04-08T21:14:33.523Z,4.90
2023-04-08T21:17:00.227Z,4.80
2023-04-08T21:19:26.804Z,4.80
2023-04-08T21:21:53.355Z,4.80
2023-04-08T21:24:19.950Z,4.80
2023-04-08T21:29:37.891Z,4.70
2023-04-08T21:32:04.625Z,4.70
2023-04-08T21:34:31.192Z,4.70
2023-04-08T21:36:57.781Z,4.80
2023-04-08T21:39:24.342Z,4.80
2023-04-08T21:41:50.884Z,4.80
2023-04-08T21:44:17.449Z,4.80
2023-04-08T21:46:44.584Z,4.80
2023-04-08T21:49:11.151Z,4.70
2023-04-08T21:51:38.044Z,4.70
2023-04-08T21:54:05.054Z,4.70
2023-04-08T21:56:31.586Z,4.80
2023-04-08T21:58:58.108Z,4.80
2023-04-08T22:01:24.673Z,4.80
2023-04-08T22:03:51.353Z,4.80
2023-04-08T22:06:29.162Z,4.70
2023-04-08T22:08:58.506Z,4.70
2023-04-08T22:11:25.083Z,4.70
2023-04-08T22:13:51.631Z,4.60
2023-04-08T22:16:18.241Z,4.60
2023-04-08T22:18:44.806Z,4.50
2023-04-08T22:21:11.403Z,4.50
2023-04-08T22:23:38.000Z,4.50
2023-04-08T22:26:04.747Z,4.60
2023-04-08T22:28:31.299Z,4.60
2023-04-08T22:30:57.940Z,4.60
2023-04-08T22:33:24.491Z,4.60
2023-04-08T22:35:51.240Z,4.60
2023-04-08T22:38:17.848Z,4.60
2023-04-08T22:40:44.486Z,4.60
2023-04-08T22:43:11.042Z,4.70
2023-04-08T22:45:37.687Z,4.70
2023-04-08T22:48:04.358Z,4.70
2023-04-08T22:50:30.911Z,4.70
2023-04-08T22:52:57.483Z,4.80
2023-04-08T22:55:24.037Z,4.70
2023-04-08T22:57:50.596Z,4.60
2023-04-08T23:00:17.293Z,4.50
2023-04-08T23:02:43.957Z,4.50
2023-04-08T23:05:10.625Z,4.50
2023-04-08T23:07:37.222Z,4.50
2023-04-08T23:10:04.000Z,4.50
2023-04-08T23:12:30.631Z,4.50
2023-04-08T23:14:57.315Z,4.60
2023-04-08T23:17:23.983Z,4.60
2023-04-08T23:19:50.615Z,4.60
2023-04-08T23:22:17.245Z,4.60
2023-04-08T23:24:43.815Z,4.60
2023-04-08T23:27:10.414Z,4.60
2023-04-08T23:29:36.987Z,4.70
2023-04-08T23:32:03.666Z,4.70
2023-04-08T23:34:30.234Z,4.70
2023-04-08T23:36:56.799Z,4.70
2023-04-08T23:39:23.383Z,4.70
2023-04-08T23:41:49.936Z,4.70
2023-04-08T23:44:16.520Z,4.70
2023-04-08T23:46:43.130Z,4.70
2023-04-08T23:49:09.677Z,4.70
2023-04-08T23:51:36.374Z,4.70
2023-04-08T23:54:03.031Z,4.70
2023-04-08T23:56:29.668Z,4.70
2023-04-08T23:58:56.299Z,4.70
